Time;durP1;ratioP1;P1;durP2;ratioP2;P2;SDS_P1;SDS_P2;PMS_P1;PMS_P2;Temp;Humidity;BMP_temperature;BMP_pressure;BME280_temperature;BME280_humidity;BME280_pressure;Samples;Min_cycle;Max_cycle;Signal;HPM_P1;HPM_P2
2024/04/01 00:13:54;;;;;;;6.53;3.42;;;;;;;;;;4878606;29;20057;-85
2024/04/01 00:16:25;;;;;;;9.40;3.35;;;;;;;;;;4864310;29;20061;-84
2024/04/01 00:18:54;;;;;;;11.60;3.88;;;;;;;;;;4879511;29;20057;-82
2024/04/01 00:21:22;;;;;;;10.68;3.50;;;;;;;;;;4865306;29;20068;-84
2024/04/01 00:23:56;;;;;;;12.20;3.53;;;;;;;;;;4862370;29;20519;-83
2024/04/01 00:26:45;;;;;;;8.07;4.13;;;;;;;;;;4858359;29;20076;-86
2024/04/01 00:29:14;;;;;;;11.23;3.58;;;;;;;;;;4836149;29;20061;-85
2024/04/01 00:31:42;;;;;;;10.82;4.13;;;;;;;;;;4806630;29;20130;-85
2024/04/01 00:34:10;;;;;;;10.93;4.03;;;;;;;;;;4820897;29;20062;-85
2024/04/01 00:36:39;;;;;;;6.68;3.45;;;;;;;;;;4792402;29;20054;-85
2024/04/01 00:39:07;;;;;;;15.52;3.35;;;;;;;;;;4810186;29;20077;-85
2024/04/01 00:41:38;;;;;;;11.38;3.58;;;;;;;;;;4826366;29;20063;-86
2024/04/01 00:44:07;;;;;;;8.85;3.65;;;;;;;;;;4825051;29;20054;-84
2024/04/01 00:46:36;;;;;;;8.63;3.33;;;;;;;;;;4810817;29;20054;-86
2024/04/01 00:49:09;;;;;;;8.82;3.50;;;;;;;;;;4809859;29;20054;-85
2024/04/01 00:51:40;;;;;;;10.43;3.60;;;;;;;;;;4809181;29;20059;-86
2024/04/01 00:54:10;;;;;;;8.68;3.88;;;;;;;;;;4809588;29;20051;-85
2024/04/01 00:56:43;;;;;;;11.52;3.42;;;;;;;;;;4809374;29;20054;-83
2024/04/01 00:59:12;;;;;;;;;;;;;;;;;;4824056;29;20058;-86
2024/04/01 01:01:41;;;;;;;9.00;3.95;;;;;;;;;;4794054;29;20288;-86
2024/04/01 01:04:09;;;;;;;10.93;4.45;;;;;;;;;;4843761;29;20384;-89
2024/04/01 01:06:39;;;;;;;9.45;3.50;;;;;;;;;;4848158;29;20083;-86
2024/04/01 01:09:11;;;;;;;8.45;3.08;;;;;;;;;;4866189;29;20067;-85
2024/04/01 01:11:40;;;;;;;8.45;3.20;;;;;;;;;;4865665;29;20057;-85
2024/04/01 01:14:09;;;;;;;10.25;3.83;;;;;;;;;;4880166;29;20056;-85
2024/04/01 01:16:38;;;;;;;6.45;3.58;;;;;;;;;;4850653;29;20056;-85
2024/04/01 01:19:09;;;;;;;10.75;3.60;;;;;;;;;;4882831;29;20048;-84
2024/04/01 01:21:38;;;;;;;8.43;3.65;;;;;;;;;;4866221;29;20404;-84
2024/04/01 01:24:07;;;;;;;8.55;3.25;;;;;;;;;;4866825;29;20055;-86
2024/04/01 01:26:36;;;;;;;8.77;3.55;;;;;;;;;;4864438;29;20067;-84
2024/04/01 01:29:05;;;;;;;6.43;3.20;;;;;;;;;;4865120;29;20060;-85
2024/04/01 01:31:33;;;;;;;7.85;3.08;;;;;;;;;;4863227;29;20057;-86
2024/04/01 01:34:01;;;;;;;6.97;3.13;;;;;;;;;;4864874;29;20053;-85
2024/04/01 01:36:30;;;;;;;6.32;3.17;;;;;;;;;;4850057;29;20048;-84
2024/04/01 01:38:58;;;;;;;7.80;3.78;;;;;;;;;;4865585;29;20056;-85
2024/04/01 01:41:27;;;;;;;14.40;4.70;;;;;;;;;;4849409;29;20057;-87
2024/04/01 01:43:55;;;;;;;7.13;3.47;;;;;;;;;;4849539;29;20061;-85
2024/04/01 01:46:23;;;;;;;8.68;3.65;;;;;;;;;;4864867;29;20045;-85
2024/04/01 01:48:51;;;;;;;9.57;3.25;;;;;;;;;;4864632;29;20060;-84
2024/04/01 01:51:19;;;;;;;11.20;4.20;;;;;;;;;;4848545;29;20428;-84
2024/04/01 01:53:54;;;;;;;7.45;3.08;;;;;;;;;;4865138;29;20041;-85
2024/04/01 01:56:22;;;;;;;8.05;3.50;;;;;;;;;;4864512;29;20053;-85
2024/04/01 01:58:50;;;;;;;9.40;4.22;;;;;;;;;;4849399;29;20428;-86
2024/04/01 02:01:19;;;;;;;8.23;3.15;;;;;;;;;;4864297;29;20519;-86
2024/04/01 02:03:47;;;;;;;12.00;3.38;;;;;;;;;;4864267;29;20040;-84
2024/04/01 02:06:15;;;;;;;9.75;3.88;;;;;;;;;;4864346;29;20057;-85
2024/04/01 02:08:44;;;;;;;13.02;3.67;;;;;;;;;;4848450;29;20053;-85
2024/04/01 02:11:12;;;;;;;11.73;3.40;;;;;;;;;;4863860;29;20516;-85
2024/04/01 02:13:41;;;;;;;13.60;4.45;;;;;;;;;;4848913;29;20080;-85
2024/04/01 02:16:10;;;;;;;10.93;4.28;;;;;;;;;;4863970;29;20065;-84
2024/04/01 02:18:38;;;;;;;12.48;4.25;;;;;;;;;;4864024;29;20075;-86
2024/04/01 02:21:07;;;;;;;10.25;3.72;;;;;;;;;;4863994;29;20057;-88
2024/04/01 02:23:35;;;;;;;12.00;3.72;;;;;;;;;;4863730;29;20057;-86
2024/04/01 02:26:05;;;;;;;8.82;4.13;;;;;;;;;;4864113;29;20397;-84
2024/04/01 02:28:35;;;;;;;9.00;3.60;;;;;;;;;;4863814;29;20068;-85
2024/04/01 02:31:04;;;;;;;8.80;2.97;;;;;;;;;;4849058;29;20049;-86
2024/04/01 02:33:32;;;;;;;9.15;3.38;;;;;;;;;;4863900;29;20056;-86
2024/04/01 02:36:00;;;;;;;12.35;3.33;;;;;;;;;;4848984;29;20061;-86
2024/04/01 02:38:28;;;;;;;10.80;3.30;;;;;;;;;;4848687;29;20057;-85
2024/04/01 02:40:56;;;;;;;10.02;3.53;;;;;;;;;;4863672;29;20428;-86
2024/04/01 02:43:25;;;;;;;7.68;3.65;;;;;;;;;;4863601;29;20060;-85
2024/04/01 02:45:53;;;;;;;10.43;4.75;;;;;;;;;;4832960;29;20061;-87
2024/04/01 02:48:21;;;;;;;11.15;4.35;;;;;;;;;;4863481;29;20049;-85
2024/04/01 02:50:50;;;;;;;10.20;3.72;;;;;;;;;;4863351;29;20073;-85
2024/04/01 02:53:18;;;;;;;13.15;4.03;;;;;;;;;;4863724;29;20060;-85
2024/04/01 02:55:46;;;;;;;12.57;4.18;;;;;;;;;;4847411;29;20061;-84
2024/04/01 02:58:15;;;;;;;9.27;3.88;;;;;;;;;;4864143;29;20070;-85
2024/04/01 03:00:45;;;;;;;7.38;3.58;;;;;;;;;;4832865;29;20531;-84
2024/04/01 03:03:15;;;;;;;10.20;3.78;;;;;;;;;;4864166;29;20436;-84
2024/04/01 03:05:43;;;;;;;7.25;3.83;;;;;;;;;;4879253;29;20045;-84
2024/04/01 03:08:11;;;;;;;9.27;3.25;;;;;;;;;;4864104;29;20041;-83
2024/04/01 03:10:39;;;;;;;11.00;4.00;;;;;;;;;;4848263;29;20131;-84
2024/04/01 03:13:08;;;;;;;7.20;3.72;;;;;;;;;;4863490;29;20053;-84
2024/04/01 03:15:36;;;;;;;8.80;3.63;;;;;;;;;;4848430;29;20534;-84
2024/04/01 03:18:05;;;;;;;6.40;3.22;;;;;;;;;;4848333;29;20057;-86
2024/04/01 03:20:33;;;;;;;8.07;3.53;;;;;;;;;;4860915;29;20487;-84
2024/04/01 03:23:02;;;;;;;12.95;4.00;;;;;;;;;;4863247;29;20057;-86
2024/04/01 03:25:30;;;;;;;14.23;4.35;;;;;;;;;;4863261;29;20064;-85
2024/04/01 03:27:58;;;;;;;10.68;3.78;;;;;;;;;;4848248;29;20068;-84
2024/04/01 03:30:27;;;;;;;9.15;3.95;;;;;;;;;;4862988;29;20056;-87
2024/04/01 03:32:56;;;;;;;9.82;3.72;;;;;;;;;;4863528;29;20424;-84
2024/04/01 03:35:24;;;;;;;6.97;3.45;;;;;;;;;;4862829;29;20045;-84
2024/04/01 03:37:53;;;;;;;8.65;4.05;;;;;;;;;;4847763;29;20060;-85
2024/04/01 03:40:21;;;;;;;9.52;5.75;;;;;;;;;;4863642;29;20401;-84
2024/04/01 03:42:49;;;;;;;14.60;4.30;;;;;;;;;;4863234;29;20049;-84
2024/04/01 03:45:17;;;;;;;11.65;4.50;;;;;;;;;;4862091;29;20068;-85
2024/04/01 03:47:46;;;;;;;11.10;3.83;;;;;;;;;;4863068;29;20060;-87
2024/04/01 03:50:14;;;;;;;13.82;3.95;;;;;;;;;;4863181;29;20057;-85
2024/04/01 03:52:42;;;;;;;9.63;3.95;;;;;;;;;;4862679;29;20070;-84
2024/04/01 03:55:10;;;;;;;7.10;3.88;;;;;;;;;;4847229;29;20083;-86
2024/04/01 03:57:42;;;;;;;9.75;4.38;;;;;;;;;;4862699;29;20037;-84
2024/04/01 04:00:12;;;;;;;8.50;3.95;;;;;;;;;;4862833;29;20056;-83
2024/04/01 04:02:44;;;;;;;10.25;4.15;;;;;;;;;;4862789;29;20053;-83
2024/04/01 04:05:13;;;;;;;8.60;3.85;;;;;;;;;;4863289;29;20049;-83
2024/04/01 04:07:41;;;;;;;11.05;3.33;;;;;;;;;;4847421;29;20057;-87
2024/04/01 04:10:11;;;;;;;7.13;3.28;;;;;;;;;;4862866;29;20048;-85
2024/04/01 04:12:39;;;;;;;8.10;3.80;;;;;;;;;;4860079;29;20535;-85
2024/04/01 04:15:09;;;;;;;10.45;4.03;;;;;;;;;;4828835;29;20398;-83
2024/04/01 04:17:37;;;;;;;10.05;5.03;;;;;;;;;;4844181;29;20046;-84
2024/04/01 04:20:06;;;;;;;8.77;3.33;;;;;;;;;;4844502;29;20060;-83
2024/04/01 04:22:34;;;;;;;10.77;3.63;;;;;;;;;;4828651;29;20068;-82
2024/04/01 04:25:02;;;;;;;9.68;3.97;;;;;;;;;;4829453;29;20053;-83
2024/04/01 04:27:31;;;;;;;14.27;4.00;;;;;;;;;;4828908;29;20057;-82
2024/04/01 04:30:00;;;;;;;10.88;3.75;;;;;;;;;;4843997;29;20065;-82
2024/04/01 04:32:28;;;;;;;13.43;3.97;;;;;;;;;;4845691;29;20050;-82
2024/04/01 04:34:56;;;;;;;9.50;3.50;;;;;;;;;;4829590;29;20054;-85
2024/04/01 04:37:24;;;;;;;8.25;3.17;;;;;;;;;;4859230;29;20054;-82
2024/04/01 04:39:53;;;;;;;12.18;4.35;;;;;;;;;;4843915;29;20049;-82
2024/04/01 04:42:21;;;;;;;8.38;3.67;;;;;;;;;;4844438;29;20049;-83
2024/04/01 04:44:51;;;;;;;8.77;3.50;;;;;;;;;;4844186;29;20057;-82
2024/04/01 04:47:19;;;;;;;12.48;4.15;;;;;;;;;;4828809;29;20415;-85
2024/04/01 04:49:48;;;;;;;12.57;4.30;;;;;;;;;;4844047;29;20054;-83
2024/04/01 04:52:16;;;;;;;7.50;4.00;;;;;;;;;;4828368;29;20062;-82
2024/04/01 04:54:44;;;;;;;8.93;4.05;;;;;;;;;;4843629;29;20542;-83
2024/04/01 04:57:12;;;;;;;10.35;3.75;;;;;;;;;;4860542;29;20070;-84
2024/04/01 04:59:41;;;;;;;9.73;3.75;;;;;;;;;;4833549;29;20524;-85
2024/04/01 05:02:09;;;;;;;14.07;3.92;;;;;;;;;;4841487;29;20085;-84
2024/04/01 05:04:38;;;;;;;7.88;3.83;;;;;;;;;;4847454;29;20068;-85
2024/04/01 05:07:06;;;;;;;10.02;3.63;;;;;;;;;;4864635;29;20022;-83
2024/04/01 05:09:35;;;;;;;11.05;3.42;;;;;;;;;;4868024;29;20033;-82
2024/04/01 05:12:03;;;;;;;10.50;3.60;;;;;;;;;;4874640;29;20041;-83
2024/04/01 05:14:32;;;;;;;9.07;3.92;;;;;;;;;;4885845;29;20057;-82
2024/04/01 05:17:00;;;;;;;6.30;3.50;;;;;;;;;;4852892;29;20538;-84
2024/04/01 05:19:28;;;;;;;11.02;3.30;;;;;;;;;;4831524;29;20064;-83
2024/04/01 05:21:57;;;;;;;19.55;3.95;;;;;;;;;;4846666;29;20061;-85
2024/04/01 05:24:25;;;;;;;7.72;3.63;;;;;;;;;;4863857;29;20075;-84
2024/04/01 05:26:53;;;;;;;8.57;3.55;;;;;;;;;;4834292;29;20080;-83
2024/04/01 05:29:23;;;;;;;9.55;3.60;;;;;;;;;;4865457;29;20072;-85
2024/04/01 05:31:51;;;;;;;7.55;3.88;;;;;;;;;;4850022;29;20072;-85
2024/04/01 05:34:21;;;;;;;10.77;3.30;;;;;;;;;;4850089;29;20060;-85
2024/04/01 05:36:49;;;;;;;18.85;3.60;;;;;;;;;;4850280;29;20068;-83
2024/04/01 05:39:17;;;;;;;8.95;3.17;;;;;;;;;;4850717;29;20060;-83
2024/04/01 05:41:45;;;;;;;12.55;3.92;;;;;;;;;;4864766;29;20064;-83
2024/04/01 05:44:14;;;;;;;8.85;3.78;;;;;;;;;;4864730;29;20061;-84
2024/04/01 05:46:42;;;;;;;8.23;3.53;;;;;;;;;;4865040;29;20056;-83
2024/04/01 05:49:11;;;;;;;10.60;3.72;;;;;;;;;;4849560;29;20065;-83
2024/04/01 05:51:39;;;;;;;9.82;3.38;;;;;;;;;;4864925;29;20049;-82
2024/04/01 05:54:08;;;;;;;5.78;3.38;;;;;;;;;;4864728;29;20053;-83
2024/04/01 05:56:37;;;;;;;5.78;3.22;;;;;;;;;;4849331;29;20052;-82
2024/04/01 05:59:05;;;;;;;10.40;3.15;;;;;;;;;;4849051;29;20064;-85
2024/04/01 06:01:33;;;;;;;18.40;3.33;;;;;;;;;;4850210;29;20060;-85
2024/04/01 06:04:03;;;;;;;6.93;3.10;;;;;;;;;;4863694;29;20053;-86
2024/04/01 06:06:31;;;;;;;9.57;3.97;;;;;;;;;;4864578;29;20053;-84
2024/04/01 06:08:59;;;;;;;8.50;3.38;;;;;;;;;;4864628;29;20053;-83
2024/04/01 06:11:29;;;;;;;8.27;3.35;;;;;;;;;;4848653;29;20057;-84
2024/04/01 06:13:57;;;;;;;6.60;3.03;;;;;;;;;;4865090;29;20057;-83
2024/04/01 06:16:26;;;;;;;11.52;3.33;;;;;;;;;;4864236;29;20072;-85
2024/04/01 06:18:54;;;;;;;15.02;3.50;;;;;;;;;;4848307;29;20057;-84
2024/04/01 06:21:22;;;;;;;8.77;3.35;;;;;;;;;;4833929;29;20053;-85
2024/04/01 06:23:50;;;;;;;6.97;3.25;;;;;;;;;;4864560;29;20065;-83
2024/04/01 06:26:19;;;;;;;6.18;3.25;;;;;;;;;;4848359;29;20057;-83
2024/04/01 06:28:50;;;;;;;9.85;4.07;;;;;;;;;;4848942;29;20443;-83
2024/04/01 06:31:18;;;;;;;8.23;3.22;;;;;;;;;;4863879;29;20049;-85
2024/04/01 06:33:47;;;;;;;6.90;3.13;;;;;;;;;;4863678;29;20508;-83
2024/04/01 06:36:15;;;;;;;7.43;3.22;;;;;;;;;;4832591;29;20503;-85
2024/04/01 06:38:44;;;;;;;8.55;3.40;;;;;;;;;;4864020;29;20500;-84
2024/04/01 06:41:12;;;;;;;7.57;3.13;;;;;;;;;;4864287;29;20053;-84
2024/04/01 06:43:41;;;;;;;7.03;3.53;;;;;;;;;;4864274;29;20053;-85
2024/04/01 06:46:09;;;;;;;11.20;3.45;;;;;;;;;;4864279;29;20049;-85
2024/04/01 06:48:38;;;;;;;7.72;3.35;;;;;;;;;;4848489;29;20053;-82
2024/04/01 06:51:06;;;;;;;9.25;3.17;;;;;;;;;;4848318;29;20064;-83
2024/04/01 06:53:34;;;;;;;9.13;3.30;;;;;;;;;;4848409;29;20064;-83
2024/04/01 06:56:03;;;;;;;8.98;3.38;;;;;;;;;;4864072;29;20500;-85
2024/04/01 06:58:31;;;;;;;11.65;3.30;;;;;;;;;;4863571;29;20498;-83
2024/04/01 07:01:00;;;;;;;13.27;3.70;;;;;;;;;;4849044;29;20053;-82
2024/04/01 07:03:29;;;;;;;8.10;3.55;;;;;;;;;;4863038;29;20053;-84
2024/04/01 07:05:57;;;;;;;7.57;3.13;;;;;;;;;;4833136;29;20512;-84
2024/04/01 07:08:27;;;;;;;11.38;2.92;;;;;;;;;;4847868;29;20064;-83
2024/04/01 07:10:55;;;;;;;7.43;3.25;;;;;;;;;;4863608;29;20056;-84
2024/04/01 07:13:23;;;;;;;6.95;2.97;;;;;;;;;;4862746;29;20065;-84
2024/04/01 07:15:51;;;;;;;8.57;3.25;;;;;;;;;;4863460;29;20052;-83
2024/04/01 07:18:20;;;;;;;6.82;2.75;;;;;;;;;;4862278;29;20057;-84
2024/04/01 07:20:48;;;;;;;9.88;3.47;;;;;;;;;;4848037;29;20053;-83
2024/04/01 07:23:16;;;;;;;10.07;3.03;;;;;;;;;;4864093;29;20052;-86
2024/04/01 07:25:46;;;;;;;14.88;3.65;;;;;;;;;;4848073;29;20052;-82
2024/04/01 07:28:14;;;;;;;7.22;3.83;;;;;;;;;;4862797;29;20420;-84
2024/04/01 07:30:42;;;;;;;13.40;3.85;;;;;;;;;;4863427;29;20044;-83
2024/04/01 07:33:11;;;;;;;7.65;3.83;;;;;;;;;;4862791;29;20064;-84
2024/04/01 07:35:39;;;;;;;6.47;3.45;;;;;;;;;;4832839;29;20057;-84
2024/04/01 07:38:07;;;;;;;11.10;3.30;;;;;;;;;;4862919;29;20053;-83
2024/04/01 07:40:35;;;;;;;5.57;2.88;;;;;;;;;;4862566;29;20053;-84
2024/04/01 07:43:04;;;;;;;7.22;3.13;;;;;;;;;;4862731;29;20060;-83
2024/04/01 07:45:32;;;;;;;5.88;2.90;;;;;;;;;;4847747;29;20069;-84
2024/04/01 07:48:01;;;;;;;8.13;3.00;;;;;;;;;;4863086;29;20068;-85
2024/04/01 07:50:30;;;;;;;8.60;3.30;;;;;;;;;;4847691;29;20057;-83
2024/04/01 07:52:58;;;;;;;7.10;3.03;;;;;;;;;;4861624;29;20053;-83
2024/04/01 07:55:26;;;;;;;8.25;2.85;;;;;;;;;;4842730;29;20512;-83
2024/04/01 07:57:54;;;;;;;6.38;2.58;;;;;;;;;;4847148;29;20045;-83
2024/04/01 08:00:22;;;;;;;6.47;2.72;;;;;;;;;;4862977;29;20420;-83
2024/04/01 08:02:51;;;;;;;6.55;2.55;;;;;;;;;;4862485;29;20064;-83
2024/04/01 08:05:19;;;;;;;6.60;2.80;;;;;;;;;;4862164;29;20057;-86
2024/04/01 08:07:47;;;;;;;7.55;2.83;;;;;;;;;;4862697;29;20068;-84
2024/04/01 08:10:15;;;;;;;8.07;2.85;;;;;;;;;;4862056;29;20064;-84
2024/04/01 08:12:43;;;;;;;6.68;3.40;;;;;;;;;;4847397;29;20420;-85
2024/04/01 08:15:12;;;;;;;16.38;3.30;;;;;;;;;;4863112;29;20056;-85
2024/04/01 08:17:40;;;;;;;6.78;2.85;;;;;;;;;;4847845;29;20061;-83
2024/04/01 08:20:09;;;;;;;7.57;3.00;;;;;;;;;;4862402;29;20045;-83
2024/04/01 08:22:37;;;;;;;7.07;2.83;;;;;;;;;;4862227;29;20053;-85
2024/04/01 08:25:06;;;;;;;5.72;3.03;;;;;;;;;;4846142;29;20060;-83
2024/04/01 08:27:34;;;;;;;7.68;3.03;;;;;;;;;;4862023;29;20057;-81
2024/04/01 08:30:02;;;;;;;7.22;2.75;;;;;;;;;;4846929;29;20057;-84
2024/04/01 08:32:30;;;;;;;7.82;2.97;;;;;;;;;;4863652;29;20423;-86
2024/04/01 08:35:00;;;;;;;6.47;3.10;;;;;;;;;;4849890;29;20057;-85
2024/04/01 08:37:28;;;;;;;10.30;2.72;;;;;;;;;;4879667;29;20538;-83
2024/04/01 08:39:56;;;;;;;6.40;3.50;;;;;;;;;;4881011;29;20044;-85
2024/04/01 08:42:27;;;;;;;9.63;3.25;;;;;;;;;;4865081;29;20415;-83
2024/04/01 08:45:02;;;;;;;7.80;3.45;;;;;;;;;;4879846;29;20056;-84
2024/04/01 08:47:35;;;;;;;7.15;2.92;;;;;;;;;;4880558;29;20044;-84
2024/04/01 08:50:08;;;;;;;6.75;3.15;;;;;;;;;;4876072;29;20063;-83
2024/04/01 08:52:54;;;;;;;9.10;2.60;;;;;;;;;;4880385;29;20052;-82
2024/04/01 08:55:23;;;;;;;6.85;3.25;;;;;;;;;;4850043;29;20063;-81
2024/04/01 08:57:51;;;;;;;9.10;3.15;;;;;;;;;;4865261;29;20045;-82
2024/04/01 09:00:21;;;;;;;8.68;5.00;;;;;;;;;;4883792;29;20500;-83
2024/04/01 09:02:49;;;;;;;21.75;12.10;;;;;;;;;;4881264;29;20069;-82
2024/04/01 09:05:17;;;;;;;14.38;4.65;;;;;;;;;;4879898;29;20086;-82
2024/04/01 09:07:46;;;;;;;8.27;3.55;;;;;;;;;;4865893;29;20049;-83
2024/04/01 09:10:21;;;;;;;11.15;2.92;;;;;;;;;;4864040;29;20069;-83
2024/04/01 09:12:54;;;;;;;10.02;3.33;;;;;;;;;;4862489;29;20057;-82
2024/04/01 09:15:23;;;;;;;7.63;3.08;;;;;;;;;;4878849;29;20052;-82
2024/04/01 09:17:51;;;;;;;7.57;2.80;;;;;;;;;;4865076;29;20083;-82
2024/04/01 09:20:19;;;;;;;5.55;2.58;;;;;;;;;;4880935;29;20048;-81
2024/04/01 09:22:47;;;;;;;4.70;2.78;;;;;;;;;;4865777;29;20049;-82
2024/04/01 09:25:16;;;;;;;8.05;2.95;;;;;;;;;;4865292;29;20057;-81
2024/04/01 09:27:44;;;;;;;10.80;2.83;;;;;;;;;;4865431;29;20060;-82
2024/04/01 09:30:12;;;;;;;6.93;2.72;;;;;;;;;;4865301;29;20057;-81
2024/04/01 09:32:41;;;;;;;5.85;2.47;;;;;;;;;;4864990;29;20057;-82
2024/04/01 09:35:11;;;;;;;5.15;2.58;;;;;;;;;;4864715;29;20053;-81
2024/04/01 09:37:40;;;;;;;5.95;2.80;;;;;;;;;;4849133;29;20061;-82
2024/04/01 09:40:09;;;;;;;5.25;2.95;;;;;;;;;;4849480;29;20065;-82
2024/04/01 09:42:38;;;;;;;7.82;3.53;;;;;;;;;;4849093;29;20076;-83
2024/04/01 09:45:08;;;;;;;7.05;3.22;;;;;;;;;;4849275;29;20087;-81
2024/04/01 09:47:40;;;;;;;7.25;3.78;;;;;;;;;;4865210;29;20053;-81
2024/04/01 09:50:09;;;;;;;9.48;3.33;;;;;;;;;;4864843;29;20056;-82
2024/04/01 09:52:37;;;;;;;4.93;3.05;;;;;;;;;;4880405;29;20057;-82
2024/04/01 09:55:19;;;;;;;7.53;3.10;;;;;;;;;;4848812;29;20428;-81
2024/04/01 09:58:20;;;;;;;7.20;3.00;;;;;;;;;;4865195;29;20052;-81
2024/04/01 10:01:06;;;;;;;10.98;2.97;;;;;;;;;;4843705;29;20072;-82
2024/04/01 10:03:50;;;;;;;7.05;3.03;;;;;;;;;;4865175;29;20045;-82
2024/04/01 10:06:33;;;;;;;8.95;3.08;;;;;;;;;;4880087;29;20052;-82
2024/04/01 10:09:20;;;;;;;9.60;4.20;;;;;;;;;;4864478;29;20509;-81
2024/04/01 10:12:13;;;;;;;5.22;3.10;;;;;;;;;;4880073;29;20077;-81
2024/04/01 10:15:13;;;;;;;10.45;3.58;;;;;;;;;;4849695;29;20072;-82
2024/04/01 10:17:52;;;;;;;9.85;3.15;;;;;;;;;;4849217;29;20049;-82
2024/04/01 10:20:45;;;;;;;12.23;3.38;;;;;;;;;;4865069;29;20484;-81
2024/04/01 10:23:32;;;;;;;18.15;5.30;;;;;;;;;;4880314;29;20053;-82
2024/04/01 10:26:17;;;;;;;9.15;4.20;;;;;;;;;;4849205;29;20064;-81
2024/04/01 10:29:10;;;;;;;7.68;3.28;;;;;;;;;;4864585;29;20049;-82
2024/04/01 10:31:45;;;;;;;10.82;3.72;;;;;;;;;;4864512;29;20041;-80
2024/04/01 10:34:34;;;;;;;12.68;4.05;;;;;;;;;;4863876;29;20408;-82
2024/04/01 10:37:21;;;;;;;15.95;3.97;;;;;;;;;;4848982;29;20049;-82
2024/04/01 10:40:10;;;;;;;7.22;3.60;;;;;;;;;;4864418;29;20060;-83
2024/04/01 10:42:58;;;;;;;10.32;3.08;;;;;;;;;;4878160;29;20049;-84
2024/04/01 10:46:05;;;;;;;10.20;3.42;;;;;;;;;;4871680;29;20040;-83
2024/04/01 10:49:04;;;;;;;10.65;3.17;;;;;;;;;;4884949;29;20055;-84
2024/04/01 10:51:42;;;;;;;6.80;3.05;;;;;;;;;;4886091;29;20064;-85
2024/04/01 10:54:19;;;;;;;7.55;2.92;;;;;;;;;;4858695;29;20053;-85
2024/04/01 10:57:01;;;;;;;8.85;3.85;;;;;;;;;;4881090;29;20419;-85
2024/04/01 10:59:35;;;;;;;5.90;2.50;;;;;;;;;;4880004;29;20052;-85
2024/04/01 11:02:39;;;;;;;10.40;3.08;;;;;;;;;;4883015;29;20496;-84
2024/04/01 11:05:23;;;;;;;9.13;2.90;;;;;;;;;;4896286;29;20043;-85
2024/04/01 11:08:18;;;;;;;6.38;2.42;;;;;;;;;;4881977;29;20049;-84
2024/04/01 11:10:56;;;;;;;9.18;2.53;;;;;;;;;;4893018;29;20044;-84
2024/04/01 11:13:27;;;;;;;8.48;2.30;;;;;;;;;;4881266;29;20045;-84
2024/04/01 11:15:57;;;;;;;6.43;2.90;;;;;;;;;;4877514;29;20404;-84
2024/04/01 11:18:37;;;;;;;8.07;3.08;;;;;;;;;;4866255;29;20061;-84
2024/04/01 11:21:29;;;;;;;7.07;2.33;;;;;;;;;;4888780;29;20048;-84
2024/04/01 11:24:17;;;;;;;8.45;2.88;;;;;;;;;;4893554;29;20054;-84
2024/04/01 11:27:10;;;;;;;8.65;2.75;;;;;;;;;;4897515;29;20055;-84
2024/04/01 11:30:09;;;;;;;7.00;2.20;;;;;;;;;;4887365;29;20075;-83
2024/04/01 11:32:43;;;;;;;8.52;2.20;;;;;;;;;;4921520;29;20366;-86
2024/04/01 11:35:53;;;;;;;11.25;2.15;;;;;;;;;;4905798;29;20048;-84
2024/04/01 11:38:37;;;;;;;6.25;2.25;;;;;;;;;;4906012;29;20435;-85
2024/04/01 11:41:10;;;;;;;6.10;2.60;;;;;;;;;;4898290;29;20048;-86
2024/04/01 11:43:42;;;;;;;5.47;2.05;;;;;;;;;;4865039;29;20060;-84
2024/04/01 11:46:13;;;;;;;4.95;2.50;;;;;;;;;;4863435;29;20542;-83
2024/04/01 11:48:42;;;;;;;5.43;2.33;;;;;;;;;;4881222;29;20044;-84
2024/04/01 11:51:11;;;;;;;7.30;1.80;;;;;;;;;;4861299;29;20052;-85
2024/04/01 11:53:42;;;;;;;8.13;2.10;;;;;;;;;;4873762;29;20064;-84
2024/04/01 11:56:13;;;;;;;8.05;2.25;;;;;;;;;;4868254;29;20052;-85
2024/04/01 11:58:51;;;;;;;8.98;3.22;;;;;;;;;;4866628;29;20068;-84
2024/04/01 12:01:30;;;;;;;;;;;;;;;;;;4896780;29;20036;-84
2024/04/01 12:03:58;;;;;;;6.70;2.38;;;;;;;;;;4870783;29;19935;-85
2024/04/01 12:06:28;;;;;;;6.63;2.00;;;;;;;;;;4869182;29;20064;-87
2024/04/01 12:09:00;;;;;;;7.28;2.22;;;;;;;;;;4879676;29;20055;-87
2024/04/01 12:11:29;;;;;;;5.65;2.42;;;;;;;;;;4889679;29;20052;-86
2024/04/01 12:13:58;;;;;;;4.68;2.22;;;;;;;;;;4883848;29;20074;-86
2024/04/01 12:16:27;;;;;;;6.20;2.22;;;;;;;;;;4892107;29;20057;-84
2024/04/01 12:18:55;;;;;;;8.43;2.28;;;;;;;;;;4879939;29;20052;-86
2024/04/01 12:21:24;;;;;;;5.95;1.92;;;;;;;;;;4878190;29;20056;-85
2024/04/01 12:23:52;;;;;;;7.75;2.00;;;;;;;;;;4896195;29;20067;-85
2024/04/01 12:26:21;;;;;;;4.93;2.38;;;;;;;;;;4883387;29;20440;-84
2024/04/01 12:28:53;;;;;;;4.80;2.00;;;;;;;;;;4886483;29;20052;-86
2024/04/01 12:31:23;;;;;;;4.25;2.50;;;;;;;;;;4893528;29;20385;-86
2024/04/01 12:33:52;;;;;;;4.55;1.70;;;;;;;;;;4880202;29;20052;-88
2024/04/01 12:36:21;;;;;;;4.75;2.33;;;;;;;;;;4888590;29;20071;-86
2024/04/01 12:38:51;;;;;;;4.53;2.00;;;;;;;;;;4899140;29;20063;-85
2024/04/01 12:41:21;;;;;;;6.07;2.30;;;;;;;;;;4895537;29;20758;-86
2024/04/01 12:43:56;;;;;;;6.78;1.75;;;;;;;;;;4879115;29;20059;-84
2024/04/01 12:46:26;;;;;;;5.07;1.63;;;;;;;;;;4903359;29;20063;-85
2024/04/01 12:48:57;;;;;;;6.50;1.63;;;;;;;;;;4886901;29;20058;-87
2024/04/01 12:51:29;;;;;;;6.03;2.10;;;;;;;;;;4881110;29;20060;-86
2024/04/01 12:54:17;;;;;;;8.18;1.85;;;;;;;;;;4886279;29;20375;-84
2024/04/01 12:56:58;;;;;;;4.47;1.90;;;;;;;;;;4883974;29;20056;-86
2024/04/01 12:59:44;;;;;;;5.88;1.80;;;;;;;;;;4886374;29;20475;-84
2024/04/01 13:02:34;;;;;;;8.23;3.35;;;;;;;;;;4903294;29;20062;-84
2024/04/01 13:05:28;;;;;;;6.43;2.85;;;;;;;;;;4879776;29;20040;-83
2024/04/01 13:08:15;;;;;;;5.18;2.10;;;;;;;;;;4901171;29;20072;-85
2024/04/01 13:10:54;;;;;;;8.10;2.53;;;;;;;;;;4887441;29;20059;-86
2024/04/01 13:13:49;;;;;;;4.93;2.50;;;;;;;;;;4883746;29;20071;-84
2024/04/01 13:16:35;;;;;;;5.75;2.15;;;;;;;;;;4882704;29;20060;-85
2024/04/01 13:19:16;;;;;;;4.45;1.77;;;;;;;;;;4902817;29;20059;-84
2024/04/01 13:21:54;;;;;;;6.38;2.20;;;;;;;;;;4902898;29;20044;-85
2024/04/01 13:24:31;;;;;;;4.78;2.13;;;;;;;;;;4888973;29;20051;-86
2024/04/01 13:27:19;;;;;;;5.03;2.00;;;;;;;;;;4883305;29;20071;-88
2024/04/01 13:30:06;;;;;;;6.10;1.77;;;;;;;;;;4885533;29;20103;-86
2024/04/01 13:32:54;;;;;;;5.57;2.08;;;;;;;;;;4883545;29;20492;-85
2024/04/01 13:35:38;;;;;;;4.35;2.05;;;;;;;;;;4867743;29;20052;-84
2024/04/01 13:38:41;;;;;;;3.45;1.65;;;;;;;;;;4864621;29;20508;-86
2024/04/01 13:41:29;;;;;;;3.38;1.48;;;;;;;;;;4864528;29;20057;-85
2024/04/01 13:44:35;;;;;;;4.75;1.60;;;;;;;;;;4879443;29;20057;-86
2024/04/01 13:47:38;;;;;;;3.85;1.63;;;;;;;;;;4865347;29;20056;-84
2024/04/01 13:50:18;;;;;;;6.35;1.55;;;;;;;;;;4891081;29;20099;-84
2024/04/01 13:53:15;;;;;;;7.18;1.73;;;;;;;;;;4902533;29;20048;-84
2024/04/01 13:55:52;;;;;;;3.20;1.63;;;;;;;;;;4886374;29;20060;-84
2024/04/01 13:58:48;;;;;;;5.78;1.83;;;;;;;;;;4902476;29;20419;-84
2024/04/01 14:01:29;;;;;;;6.57;1.48;;;;;;;;;;4902470;29;20048;-86
2024/04/01 14:04:34;;;;;;;4.95;1.58;;;;;;;;;;4886407;29;20052;-84
2024/04/01 14:07:22;;;;;;;6.07;1.40;;;;;;;;;;4886889;29;20494;-84
2024/04/01 14:10:06;;;;;;;5.53;1.63;;;;;;;;;;4886652;29;20067;-86
2024/04/01 14:13:19;;;;;;;5.53;1.75;;;;;;;;;;4884220;29;20515;-85
2024/04/01 14:15:58;;;;;;;5.22;1.73;;;;;;;;;;4901680;29;20400;-84
2024/04/01 14:18:40;;;;;;;4.40;1.60;;;;;;;;;;4901712;29;20079;-84
2024/04/01 14:21:08;;;;;;;4.07;1.45;;;;;;;;;;4901224;29;20089;-84
2024/04/01 14:23:38;;;;;;;7.00;1.40;;;;;;;;;;4885517;29;20048;-85
2024/04/01 14:26:07;;;;;;;4.63;1.55;;;;;;;;;;4886124;29;20059;-85
2024/04/01 14:28:36;;;;;;;5.65;1.40;;;;;;;;;;4886443;29;20052;-86
2024/04/01 14:31:06;;;;;;;6.82;1.70;;;;;;;;;;4883625;29;20063;-86
2024/04/01 14:33:35;;;;;;;3.67;1.75;;;;;;;;;;4866588;29;20063;-84
2024/04/01 14:36:03;;;;;;;4.13;1.45;;;;;;;;;;4883625;29;20059;-86
2024/04/01 14:38:32;;;;;;;4.90;1.70;;;;;;;;;;4878853;29;20530;-85
2024/04/01 14:41:02;;;;;;;3.17;1.60;;;;;;;;;;4882176;29;20052;-84
2024/04/01 14:43:30;;;;;;;4.63;2.42;;;;;;;;;;4881359;29;20405;-85
2024/04/01 14:46:00;;;;;;;4.65;1.85;;;;;;;;;;4882476;29;20059;-85
2024/04/01 14:48:29;;;;;;;2.80;1.50;;;;;;;;;;4882847;29;20049;-85
2024/04/01 14:50:57;;;;;;;3.25;1.35;;;;;;;;;;4882443;29;20408;-85
2024/04/01 14:53:27;;;;;;;3.45;1.27;;;;;;;;;;4882687;29;20045;-85
2024/04/01 14:55:55;;;;;;;3.85;1.60;;;;;;;;;;4866815;29;20507;-85
2024/04/01 14:58:26;;;;;;;6.35;2.25;;;;;;;;;;4866704;29;20408;-85
2024/04/01 15:00:55;;;;;;;2.03;1.00;;;;;;;;;;4882162;29;20045;-88
2024/04/01 15:03:27;;;;;;;5.25;1.17;;;;;;;;;;4882508;29;20059;-86
2024/04/01 15:05:56;;;;;;;2.17;1.08;;;;;;;;;;4867473;29;20040;-85
2024/04/01 15:08:25;;;;;;;3.60;1.17;;;;;;;;;;4883578;29;20476;-84
2024/04/01 15:13:55;;;;;;;2.80;1.15;;;;;;;;;;4882304;29;20436;-84
2024/04/01 15:16:23;;;;;;;2.15;1.02;;;;;;;;;;4882070;29;20060;-85
2024/04/01 15:18:51;;;;;;;3.38;1.10;;;;;;;;;;4866678;29;20059;-84
2024/04/01 15:21:20;;;;;;;4.90;1.20;;;;;;;;;;4881331;29;20052;-84
2024/04/01 15:23:50;;;;;;;3.53;1.40;;;;;;;;;;4865846;29;20392;-85
2024/04/01 15:26:20;;;;;;;2.35;1.30;;;;;;;;;;4881440;29;20417;-85
2024/04/01 15:28:48;;;;;;;1.95;0.90;;;;;;;;;;4866427;29;20059;-86